createdAt,value
2019-04-07T00:02:09.983Z,9.27
2019-04-07T00:04:41.434Z,9.70
2019-04-07T00:07:13.809Z,10.43
2019-04-07T00:09:45.245Z,9.93
2019-04-07T00:12:16.320Z,9.10
2019-04-07T00:14:47.264Z,9.90
2019-04-07T00:17:19.178Z,10.00
2019-04-07T00:19:50.425Z,10.27
2019-04-07T00:22:21.273Z,9.63
2019-04-07T00:24:52.262Z,10.63
2019-04-07T00:27:23.591Z,10.33
2019-04-07T00:29:55.463Z,10.47
2019-04-07T00:32:26.482Z,10.73
2019-04-07T00:34:57.542Z,10.77
2019-04-07T00:37:28.417Z,10.63
2019-04-07T00:40:00.575Z,10.30
2019-04-07T00:42:31.674Z,10.23
2019-04-07T00:45:03.622Z,10.00
2019-04-07T00:47:34.239Z,9.90
2019-04-07T00:50:05.694Z,10.97
2019-04-07T00:52:36.998Z,10.67
2019-04-07T00:55:08.851Z,11.73
2019-04-07T00:57:39.638Z,10.87
2019-04-07T01:00:11.825Z,11.23
2019-04-07T01:02:43.072Z,11.57
2019-04-07T01:05:13.994Z,10.87
2019-04-07T01:07:45.209Z,10.87
2019-04-07T01:10:16.355Z,10.37
2019-04-07T01:12:47.361Z,10.60
2019-04-07T01:15:18.631Z,11.40
2019-04-07T01:17:49.093Z,11.00
2019-04-07T01:20:20.652Z,10.83
2019-04-07T01:22:51.594Z,10.70
2019-04-07T01:25:22.558Z,11.20
2019-04-07T01:27:53.271Z,11.57
2019-04-07T01:30:23.933Z,11.33
2019-04-07T01:32:54.875Z,11.70
2019-04-07T01:35:25.636Z,11.10
2019-04-07T01:37:57.059Z,11.20
2019-04-07T01:40:28.866Z,11.83
2019-04-07T01:43:14.242Z,11.07
2019-04-07T01:46:03.826Z,11.37
2019-04-07T01:48:52.332Z,11.43
2019-04-07T01:51:41.061Z,11.57
2019-04-07T01:54:20.941Z,11.23
2019-04-07T01:57:10.711Z,10.73
2019-04-07T01:59:58.846Z,10.90
2019-04-07T02:02:49.399Z,11.20
2019-04-07T02:05:58.653Z,11.53
2019-04-07T02:08:35.286Z,12.10
2019-04-07T02:11:43.990Z,10.97
2019-04-07T02:14:34.521Z,11.57
2019-04-07T02:17:19.948Z,10.77
2019-04-07T02:20:24.642Z,11.50
2019-04-07T02:23:14.356Z,11.90
2019-04-07T02:25:58.171Z,12.17
2019-04-07T02:28:57.214Z,11.93
2019-04-07T02:31:49.931Z,11.70
2019-04-07T02:34:29.893Z,11.93
2019-04-07T02:37:26.749Z,11.77
2019-04-07T02:40:17.849Z,11.33
2019-04-07T02:43:06.031Z,12.50
2019-04-07T02:45:56.447Z,11.87
2019-04-07T02:48:45.059Z,12.43
2019-04-07T02:51:26.257Z,11.60
2019-04-07T02:54:05.952Z,12.13
2019-04-07T02:56:57.538Z,11.50
2019-04-07T02:59:46.230Z,11.60
2019-04-07T03:02:34.555Z,11.90
2019-04-07T03:05:36.770Z,12.47
2019-04-07T03:08:42.926Z,12.50
2019-04-07T03:11:47.754Z,11.97
2019-04-07T03:14:31.327Z,12.07
2019-04-07T03:17:16.683Z,12.13
2019-04-07T03:19:56.243Z,12.00
2019-04-07T03:22:45.907Z,11.83
2019-04-07T03:25:35.620Z,12.37
2019-04-07T03:28:19.623Z,12.00
2019-04-07T03:31:08.333Z,12.37
2019-04-07T03:34:18.454Z,11.93
2019-04-07T03:37:18.388Z,11.23
2019-04-07T03:39:55.098Z,12.87
2019-04-07T03:42:32.760Z,12.70
2019-04-07T03:45:22.121Z,13.67
2019-04-07T03:48:07.106Z,12.33
2019-04-07T03:50:50.834Z,11.93
2019-04-07T03:53:50.531Z,12.10
2019-04-07T03:56:32.091Z,12.03
2019-04-07T03:59:20.139Z,12.57
2019-04-07T04:02:07.998Z,13.70
2019-04-07T04:04:46.499Z,12.80
2019-04-07T04:07:32.382Z,12.63
2019-04-07T04:10:27.140Z,12.67
2019-04-07T04:13:20.101Z,13.13
2019-04-07T04:16:10.513Z,12.93
2019-04-07T04:18:41.393Z,12.07
2019-04-07T04:21:11.923Z,12.97
2019-04-07T04:23:43.562Z,13.17
2019-04-07T04:26:15.137Z,12.73
2019-04-07T04:28:46.212Z,13.23
2019-04-07T04:31:17.989Z,13.30
2019-04-07T04:33:49.024Z,12.97
2019-04-07T04:36:19.715Z,13.67
2019-04-07T04:38:52.384Z,12.70
2019-04-07T04:41:23.316Z,13.30
2019-04-07T04:43:54.727Z,13.53
2019-04-07T04:46:25.890Z,12.27
2019-04-07T04:48:58.930Z,12.63
2019-04-07T04:51:35.078Z,13.50
2019-04-07T04:54:03.866Z,12.17
2019-04-07T04:56:34.612Z,12.83
2019-04-07T04:59:07.492Z,12.57
2019-04-07T05:01:38.484Z,13.03
2019-04-07T05:04:10.005Z,12.87
2019-04-07T05:06:41.325Z,12.60
2019-04-07T05:09:12.324Z,12.33
2019-04-07T05:11:43.577Z,12.97
2019-04-07T05:14:15.175Z,12.47
2019-04-07T05:16:45.734Z,12.73
2019-04-07T05:19:16.536Z,11.90
2019-04-07T05:21:47.358Z,12.30
2019-04-07T05:24:18.053Z,12.70
2019-04-07T05:26:48.966Z,12.10
2019-04-07T05:29:20.157Z,11.90
2019-04-07T05:31:51.366Z,12.47
2019-04-07T05:34:22.420Z,12.00
2019-04-07T05:36:54.503Z,13.03
2019-04-07T05:39:25.791Z,12.10
2019-04-07T05:41:57.064Z,12.17
2019-04-07T05:44:28.865Z,12.30
2019-04-07T05:46:59.739Z,12.23
2019-04-07T05:49:30.496Z,11.70
2019-04-07T05:52:04.028Z,12.33
2019-04-07T05:54:34.043Z,12.67
2019-04-07T05:57:05.461Z,11.83
2019-04-07T05:59:36.520Z,11.73
2019-04-07T06:02:08.011Z,10.70
2019-04-07T06:04:39.393Z,11.20
2019-04-07T06:07:11.399Z,11.50
2019-04-07T06:09:42.632Z,11.57
2019-04-07T06:12:13.365Z,11.57
2019-04-07T06:14:46.569Z,10.80
2019-04-07T06:17:16.563Z,9.87
2019-04-07T06:19:47.214Z,9.93
2019-04-07T06:22:19.829Z,10.80
2019-04-07T06:24:51.291Z,10.57
2019-04-07T06:27:21.965Z,10.23
2019-04-07T06:29:57.322Z,10.10
2019-04-07T06:32:26.917Z,10.23
2019-04-07T06:34:58.419Z,9.83
2019-04-07T06:37:29.502Z,9.47
2019-04-07T06:40:01.191Z,9.90
2019-04-07T06:42:34.075Z,9.93
2019-04-07T06:45:06.309Z,9.70
2019-04-07T06:47:46.439Z,9.43
2019-04-07T06:50:23.676Z,9.70
2019-04-07T06:53:18.665Z,9.53
2019-04-07T06:56:09.993Z,10.40
2019-04-07T06:58:59.304Z,9.17
2019-04-07T07:01:41.226Z,9.30
2019-04-07T07:04:30.067Z,9.60
2019-04-07T07:07:34.669Z,9.17
2019-04-07T07:10:28.689Z,9.50
2019-04-07T07:13:09.678Z,9.97
2019-04-07T07:16:05.146Z,9.93
2019-04-07T07:19:02.035Z,9.83
2019-04-07T07:21:54.498Z,9.37
2019-04-07T07:24:26.586Z,8.97
2019-04-07T07:26:58.090Z,8.90
2019-04-07T07:29:30.849Z,9.43
2019-04-07T07:32:03.801Z,9.33
2019-04-07T07:34:34.070Z,8.60
2019-04-07T07:37:05.275Z,8.93
2019-04-07T07:39:36.189Z,8.93
2019-04-07T07:42:07.367Z,9.03
2019-04-07T07:44:39.729Z,8.23
2019-04-07T07:47:11.863Z,8.87
2019-04-07T07:49:42.754Z,8.37
2019-04-07T07:52:16.562Z,8.33
2019-04-07T07:54:46.323Z,8.70
2019-04-07T07:57:21.000Z,8.37
2019-04-07T07:59:49.887Z,8.10
2019-04-07T08:02:21.882Z,8.40
2019-04-07T08:05:11.479Z,7.93
2019-04-07T08:07:46.811Z,7.40
2019-04-07T08:10:16.910Z,7.70
2019-04-07T08:12:49.487Z,7.37
2019-04-07T08:15:23.823Z,7.63
2019-04-07T08:17:53.903Z,7.33
2019-04-07T08:20:25.046Z,7.37
2019-04-07T08:22:56.166Z,7.13
2019-04-07T08:25:28.109Z,7.37
2019-04-07T08:28:02.169Z,6.90
2019-04-07T08:30:31.790Z,6.40
2019-04-07T08:33:03.474Z,6.47
2019-04-07T08:35:38.138Z,6.07
2019-04-07T08:38:06.822Z,6.50
2019-04-07T08:40:39.076Z,6.37
2019-04-07T08:43:10.164Z,6.57
2019-04-07T08:45:41.471Z,6.50
2019-04-07T08:48:11.991Z,6.07
2019-04-07T08:50:43.064Z,6.23
2019-04-07T08:53:16.256Z,5.63
2019-04-07T08:55:48.559Z,6.17
2019-04-07T08:58:25.831Z,5.27
2019-04-07T09:00:53.894Z,5.60
2019-04-07T09:03:24.422Z,5.20
2019-04-07T09:05:57.426Z,4.70
2019-04-07T09:08:28.406Z,5.90
2019-04-07T09:11:11.145Z,5.33
2019-04-07T09:13:44.300Z,5.13
2019-04-07T09:16:25.138Z,4.83
2019-04-07T09:19:10.399Z,4.80
2019-04-07T09:21:58.484Z,4.40
2019-04-07T09:24:50.846Z,5.03
2019-04-07T09:27:32.695Z,5.20
2019-04-07T09:30:22.577Z,4.50
2019-04-07T09:33:18.149Z,4.33
2019-04-07T09:36:16.982Z,4.50
2019-04-07T09:39:09.738Z,3.50
2019-04-07T09:41:57.326Z,4.67
2019-04-07T09:44:53.827Z,4.17
2019-04-07T09:47:49.686Z,4.27
2019-04-07T09:50:43.083Z,4.13
2019-04-07T09:53:48.756Z,4.20
2019-04-07T09:56:29.592Z,3.67
2019-04-07T09:59:20.518Z,3.50
2019-04-07T10:02:10.436Z,4.17
2019-04-07T10:04:58.737Z,3.40
2019-04-07T10:07:42.202Z,3.20
2019-04-07T10:10:33.260Z,3.23
2019-04-07T10:13:29.659Z,3.00
2019-04-07T10:16:35.359Z,3.20
2019-04-07T10:19:16.689Z,2.97
2019-04-07T10:22:05.409Z,3.20
2019-04-07T10:24:53.882Z,2.77
2019-04-07T10:27:33.958Z,2.70
2019-04-07T10:30:24.202Z,2.60
2019-04-07T10:33:04.954Z,2.43
2019-04-07T10:36:12.654Z,2.43
2019-04-07T10:38:56.853Z,2.73
2019-04-07T10:41:55.945Z,2.43
2019-04-07T10:44:45.583Z,2.60
2019-04-07T10:47:38.495Z,2.30
2019-04-07T10:50:28.598Z,2.40
2019-04-07T10:53:34.102Z,2.20
2019-04-07T10:56:27.691Z,2.10
2019-04-07T10:59:19.938Z,2.20
2019-04-07T11:02:10.351Z,2.27
2019-04-07T11:05:07.027Z,1.90
2019-04-07T11:08:09.154Z,2.00
2019-04-07T11:10:53.344Z,2.30
2019-04-07T11:13:48.857Z,2.27
2019-04-07T11:16:37.817Z,2.50
2019-04-07T11:19:27.312Z,2.23
2019-04-07T11:22:05.623Z,2.00
2019-04-07T11:25:05.382Z,1.90
2019-04-07T11:27:59.420Z,1.97
2019-04-07T11:30:39.844Z,1.93
2019-04-07T11:33:34.065Z,2.03
2019-04-07T11:36:39.672Z,1.80
2019-04-07T11:39:30.721Z,1.80
2019-04-07T11:42:19.729Z,1.73
2019-04-07T11:45:12.728Z,2.00
2019-04-07T11:48:01.485Z,1.83
2019-04-07T11:50:57.621Z,1.83
2019-04-07T11:53:54.308Z,2.10
2019-04-07T11:56:49.417Z,2.13
2019-04-07T11:59:51.293Z,2.00
2019-04-07T12:02:51.925Z,1.90
2019-04-07T12:05:44.164Z,1.80
2019-04-07T12:08:36.143Z,2.17
2019-04-07T12:11:20.746Z,1.80
2019-04-07T12:14:24.425Z,2.10
2019-04-07T12:17:21.018Z,2.20
2019-04-07T12:20:14.218Z,2.17
2019-04-07T12:23:10.394Z,1.97
2019-04-07T12:25:56.868Z,2.47
2019-04-07T12:28:53.745Z,2.10
2019-04-07T12:31:51.030Z,2.17
2019-04-07T12:34:46.424Z,2.07
2019-04-07T12:37:28.494Z,2.20
2019-04-07T12:40:22.980Z,2.50
2019-04-07T12:43:00.905Z,2.20
2019-04-07T12:45:56.459Z,2.20
2019-04-07T12:48:55.410Z,2.17
2019-04-07T12:51:56.048Z,2.43
2019-04-07T12:54:52.629Z,2.37
2019-04-07T12:57:35.462Z,2.00
2019-04-07T13:00:24.719Z,2.00
2019-04-07T13:03:22.895Z,2.30
2019-04-07T13:06:24.785Z,2.17
2019-04-07T13:09:16.380Z,2.20
2019-04-07T13:12:11.926Z,2.10
2019-04-07T13:15:05.542Z,2.20
2019-04-07T13:17:56.279Z,2.30
2019-04-07T13:20:55.095Z,2.23
2019-04-07T13:23:36.994Z,2.17
2019-04-07T13:26:30.264Z,2.60
2019-04-07T13:29:12.919Z,2.70
2019-04-07T13:31:57.552Z,2.80
2019-04-07T13:34:46.110Z,2.57
2019-04-07T13:37:44.937Z,2.70
2019-04-07T13:40:34.783Z,2.80
2019-04-07T13:43:18.706Z,2.90
2019-04-07T13:45:59.811Z,2.73
2019-04-07T13:48:51.124Z,2.50
2019-04-07T13:51:37.519Z,2.70
2019-04-07T13:54:47.146Z,3.10
2019-04-07T13:57:38.152Z,2.47
2019-04-07T14:00:30.620Z,2.37
2019-04-07T14:03:29.140Z,2.80
2019-04-07T14:06:19.407Z,2.70
2019-04-07T14:08:59.104Z,2.50
2019-04-07T14:12:01.573Z,2.73
2019-04-07T14:14:39.551Z,2.87
2019-04-07T14:17:20.853Z,2.67
2019-04-07T14:20:10.392Z,2.97
2019-04-07T14:22:56.661Z,2.80
2019-04-07T14:25:48.253Z,3.40
2019-04-07T14:28:34.608Z,3.63
2019-04-07T14:31:23.189Z,3.60
2019-04-07T14:34:15.748Z,3.40
2019-04-07T14:36:59.010Z,3.27
2019-04-07T14:39:41.096Z,3.63
2019-04-07T14:42:34.136Z,3.40
2019-04-07T14:45:21.058Z,3.40
2019-04-07T14:48:10.956Z,3.50
2019-04-07T14:51:04.856Z,3.20
2019-04-07T14:53:54.335Z,3.30
2019-04-07T14:56:37.896Z,3.40
2019-04-07T14:59:38.455Z,3.40
2019-04-07T15:02:10.400Z,2.93
2019-04-07T15:04:54.668Z,3.23
2019-04-07T15:07:50.299Z,3.60
2019-04-07T15:10:27.540Z,3.10
2019-04-07T15:13:04.078Z,3.30
2019-04-07T15:15:35.680Z,3.77
2019-04-07T15:18:07.222Z,3.30
2019-04-07T15:20:37.905Z,3.77
2019-04-07T15:23:09.080Z,3.57
2019-04-07T15:25:44.177Z,3.27
2019-04-07T15:28:14.258Z,3.83
2019-04-07T15:30:47.824Z,3.50
2019-04-07T15:33:17.789Z,3.73
2019-04-07T15:35:50.173Z,3.43
2019-04-07T15:38:24.936Z,3.90
2019-04-07T15:40:53.181Z,4.17
2019-04-07T15:43:24.293Z,4.20
2019-04-07T15:45:55.775Z,4.00
2019-04-07T15:48:27.127Z,4.37
2019-04-07T15:51:00.972Z,4.47
2019-04-07T15:53:31.943Z,4.20
2019-04-07T15:56:06.578Z,4.47
2019-04-07T15:58:35.931Z,4.40
2019-04-07T16:01:09.335Z,4.53
2019-04-07T16:03:39.413Z,4.20
2019-04-07T16:06:14.330Z,4.43
2019-04-07T16:08:42.791Z,4.23
2019-04-07T16:11:16.434Z,4.60
2019-04-07T16:13:46.308Z,5.23
2019-04-07T16:16:17.762Z,4.90
2019-04-07T16:18:48.576Z,5.23
2019-04-07T16:21:20.658Z,4.93
2019-04-07T16:23:53.341Z,4.80
2019-04-07T16:26:23.991Z,4.23
2019-04-07T16:28:55.203Z,4.37
2019-04-07T16:31:25.999Z,4.87
2019-04-07T16:33:57.043Z,4.90
2019-04-07T16:36:28.182Z,4.77
2019-04-07T16:39:01.757Z,4.77
2019-04-07T16:41:32.845Z,5.00
2019-04-07T16:44:06.391Z,5.23
2019-04-07T16:46:36.836Z,4.67
2019-04-07T16:49:07.804Z,4.80
2019-04-07T16:51:40.454Z,4.87
2019-04-07T16:54:11.784Z,5.13
2019-04-07T16:56:44.022Z,4.23
2019-04-07T16:59:15.582Z,4.50
2019-04-07T17:01:46.417Z,4.90
2019-04-07T17:04:17.429Z,4.17
2019-04-07T17:06:59.486Z,4.47
2019-04-07T17:09:24.720Z,4.90
2019-04-07T17:11:54.711Z,4.93
2019-04-07T17:14:26.821Z,4.93
2019-04-07T17:16:57.994Z,4.57
2019-04-07T17:19:30.021Z,4.63
2019-04-07T17:22:03.096Z,4.40
2019-04-07T17:24:35.282Z,4.40
2019-04-07T17:27:09.704Z,4.87
2019-04-07T17:29:39.522Z,4.40
2019-04-07T17:32:10.938Z,4.67
2019-04-07T17:34:43.584Z,4.57
2019-04-07T17:37:16.237Z,4.30
2019-04-07T17:39:55.952Z,4.13
2019-04-07T17:42:28.290Z,4.57
2019-04-07T17:45:20.409Z,4.47
2019-04-07T17:48:07.845Z,4.30
2019-04-07T17:50:56.490Z,4.40
2019-04-07T17:53:47.291Z,4.80
2019-04-07T17:56:46.302Z,4.03
2019-04-07T17:59:38.420Z,4.00
2019-04-07T18:02:28.765Z,3.97
2019-04-07T18:05:26.577Z,4.27
2019-04-07T18:08:33.981Z,4.53
2019-04-07T18:11:29.780Z,4.37
2019-04-07T18:14:30.179Z,4.03
2019-04-07T18:17:39.793Z,4.43
2019-04-07T18:20:28.345Z,4.50
2019-04-07T18:23:16.566Z,4.40
2019-04-07T18:26:08.790Z,4.70
2019-04-07T18:28:54.043Z,4.23
2019-04-07T18:31:49.031Z,4.77
2019-04-07T18:34:39.696Z,5.10
2019-04-07T18:37:29.065Z,5.67
2019-04-07T18:40:35.109Z,5.00
2019-04-07T18:43:19.023Z,5.50
2019-04-07T18:46:20.196Z,5.67
2019-04-07T18:49:10.351Z,5.43
2019-04-07T18:51:53.738Z,5.60
2019-04-07T18:54:42.435Z,5.50
2019-04-07T18:57:42.802Z,6.17
2019-04-07T19:00:32.423Z,5.93
2019-04-07T19:03:18.167Z,6.13
2019-04-07T19:06:07.455Z,5.73
2019-04-07T19:08:52.726Z,5.43
2019-04-07T19:11:37.415Z,6.30
2019-04-07T19:14:45.367Z,6.17
2019-04-07T19:17:33.647Z,6.00
2019-04-07T19:20:22.884Z,6.40
2019-04-07T19:23:11.649Z,5.63
2019-04-07T19:25:51.168Z,6.20
2019-04-07T19:28:43.719Z,5.70
2019-04-07T19:31:23.685Z,6.70
2019-04-07T19:34:31.758Z,6.47
2019-04-07T19:37:15.600Z,6.20
2019-04-07T19:40:02.509Z,6.23
2019-04-07T19:43:01.721Z,6.50
2019-04-07T19:45:58.529Z,5.77
2019-04-07T19:48:46.998Z,6.57
2019-04-07T19:51:34.447Z,6.77
2019-04-07T19:54:23.553Z,6.10
2019-04-07T19:57:04.740Z,6.23
2019-04-07T19:59:58.334Z,6.07
2019-04-07T20:02:53.775Z,6.57
2019-04-07T20:05:58.933Z,6.23
2019-04-07T20:08:49.304Z,6.17
2019-04-07T20:11:36.908Z,6.20
2019-04-07T20:14:32.209Z,6.23
2019-04-07T20:17:23.704Z,6.43
2019-04-07T20:20:23.828Z,6.30
2019-04-07T20:23:16.760Z,6.10
2019-04-07T20:25:53.254Z,6.30
2019-04-07T20:28:46.607Z,6.07
2019-04-07T20:31:36.461Z,6.47
2019-04-07T20:34:26.667Z,6.27
2019-04-07T20:37:03.933Z,6.30
2019-04-07T20:39:56.239Z,6.17
2019-04-07T20:42:48.513Z,5.97
2019-04-07T20:45:49.126Z,5.90
2019-04-07T20:48:37.094Z,5.70
2019-04-07T20:51:24.218Z,5.67
2019-04-07T20:54:19.941Z,5.90
2019-04-07T20:57:16.302Z,5.73
2019-04-07T21:00:03.474Z,5.87
2019-04-07T21:03:06.434Z,5.47
2019-04-07T21:05:33.651Z,5.33
2019-04-07T21:08:20.976Z,5.67
2019-04-07T21:11:09.002Z,5.80
2019-04-07T21:14:07.773Z,6.17
2019-04-07T21:17:07.048Z,5.30
2019-04-07T21:20:09.773Z,5.90
2019-04-07T21:23:09.230Z,6.07
2019-04-07T21:26:05.779Z,5.63
2019-04-07T21:29:02.395Z,5.50
2019-04-07T21:32:08.302Z,5.47
2019-04-07T21:34:47.231Z,5.47
2019-04-07T21:37:37.955Z,5.53
2019-04-07T21:40:18.720Z,5.80
2019-04-07T21:43:07.229Z,5.07
2019-04-07T21:46:03.016Z,5.17
2019-04-07T21:48:58.043Z,4.77
2019-04-07T21:51:38.787Z,4.50
2019-04-07T21:54:44.053Z,3.90
2019-04-07T21:57:56.753Z,3.57
2019-04-07T22:00:43.634Z,3.30
2019-04-07T22:03:40.878Z,2.90
2019-04-07T22:06:37.267Z,2.60
2019-04-07T22:09:17.053Z,2.63
2019-04-07T22:11:49.432Z,2.73
2019-04-07T22:14:20.856Z,2.13
2019-04-07T22:16:51.519Z,2.20
2019-04-07T22:19:22.662Z,2.30
2019-04-07T22:21:56.364Z,2.10
2019-04-07T22:24:26.319Z,2.00
2019-04-07T22:26:57.533Z,2.27
2019-04-07T22:29:28.748Z,1.80
2019-04-07T22:31:59.855Z,2.00
2019-04-07T22:34:32.701Z,1.90
2019-04-07T22:37:04.490Z,1.87
2019-04-07T22:39:35.837Z,1.67
2019-04-07T22:42:06.890Z,1.60
2019-04-07T22:44:38.121Z,1.83
2019-04-07T22:47:10.883Z,1.57
2019-04-07T22:49:41.618Z,1.70
2019-04-07T22:52:16.033Z,1.80
2019-04-07T22:54:45.728Z,1.40
2019-04-07T22:57:17.666Z,1.60
2019-04-07T22:59:48.383Z,1.53
2019-04-07T23:02:20.004Z,1.50
2019-04-07T23:04:50.890Z,1.70
2019-04-07T23:07:23.446Z,1.70
2019-04-07T23:09:54.371Z,1.40
2019-04-07T23:12:24.970Z,1.73
2019-04-07T23:14:56.230Z,1.70
2019-04-07T23:17:28.024Z,1.80
2019-04-07T23:19:59.657Z,2.17
2019-04-07T23:22:30.611Z,1.73
2019-04-07T23:25:01.706Z,1.97
2019-04-07T23:27:32.687Z,2.13
2019-04-07T23:30:03.719Z,2.00
2019-04-07T23:32:34.437Z,2.00
2019-04-07T23:35:06.166Z,1.87
2019-04-07T23:37:37.172Z,2.33
2019-04-07T23:40:08.818Z,2.47
2019-04-07T23:42:40.131Z,2.10
2019-04-07T23:45:11.118Z,2.60
2019-04-07T23:47:42.740Z,2.83
2019-04-07T23:50:15.622Z,2.70
2019-04-07T23:52:46.474Z,3.03
2019-04-07T23:55:17.603Z,2.80
2019-04-07T23:57:48.689Z,3.40
